Time;durP1;ratioP1;P1;durP2;ratioP2;P2;SDS_P1;SDS_P2;PMS_P1;PMS_P2;Temp;Humidity;BMP_temperature;BMP_pressure;BME280_temperature;BME280_humidity;BME280_pressure;Samples;Min_cycle;Max_cycle;Signal;HPM_P1;HPM_P2
2020/12/26 00:00:00;;;;;;;2.08;1.25;;;18.60;33.10;;;;;;8357818;28;20482;-45
2020/12/26 00:04:00;;;;;;;1.33;1.03;;;18.60;33.20;;;;;;8365601;28;20040;-45
2020/12/26 00:08:01;;;;;;;1.67;1.30;;;18.60;33.20;;;;;;8335108;28;20395;-46
2020/12/26 00:12:01;;;;;;;1.20;1.10;;;18.60;33.10;;;;;;8357512;28;20102;-47
2020/12/26 00:16:06;;;;;;;2.37;1.33;;;18.60;33.20;;;;;;8344269;28;20055;-45
2020/12/26 00:20:07;;;;;;;1.60;1.20;;;18.60;33.20;;;;;;8329866;28;20033;-44
2020/12/26 00:24:08;;;;;;;0.88;0.88;;;18.50;33.10;;;;;;8350280;28;20068;-46
2020/12/26 00:28:09;;;;;;;1.47;1.37;;;18.50;33.20;;;;;;8326498;28;20065;-46
2020/12/26 00:32:10;;;;;;;1.48;1.00;;;18.50;33.10;;;;;;8324729;28;20033;-46
2020/12/26 00:36:10;;;;;;;1.60;1.20;;;18.50;33.20;;;;;;8330896;28;20387;-45
2020/12/26 00:40:11;;;;;;;1.37;1.10;;;18.50;33.20;;;;;;8326038;28;20128;-46
2020/12/26 00:44:12;;;;;;;1.43;1.03;;;18.50;33.20;;;;;;8324400;28;20116;-46
2020/12/26 00:48:13;;;;;;;1.05;0.90;;;18.50;33.20;;;;;;8335195;28;20056;-46
2020/12/26 00:52:13;;;;;;;1.60;1.37;;;18.50;33.20;;;;;;8359037;28;20477;-45
2020/12/26 00:56:14;;;;;;;1.60;1.30;;;18.50;33.20;;;;;;8361629;28;20083;-46
2020/12/26 01:00:14;;;;;;;1.67;1.57;;;18.50;33.20;;;;;;8358718;28;20103;-45
2020/12/26 01:04:15;;;;;;;1.20;1.00;;;18.40;33.20;;;;;;8341195;28;20512;-45
2020/12/26 01:08:15;;;;;;;1.70;1.40;;;18.40;33.10;;;;;;8323380;28;20049;-46
2020/12/26 01:12:16;;;;;;;2.40;1.30;;;18.40;33.20;;;;;;8329832;28;20034;-46
2020/12/26 01:16:17;;;;;;;2.10;1.40;;;18.40;33.20;;;;;;8325051;28;20038;-46
2020/12/26 01:20:17;;;;;;;1.77;1.20;;;18.40;33.10;;;;;;8323336;28;20052;-46
2020/12/26 01:24:18;;;;;;;1.30;1.20;;;18.40;33.20;;;;;;8325019;28;20045;-46
2020/12/26 01:28:19;;;;;;;1.27;1.02;;;18.40;33.10;;;;;;8325831;28;20056;-45
2020/12/26 01:32:22;;;;;;;1.77;1.40;;;18.40;33.10;;;;;;8326273;28;20128;-45
2020/12/26 01:36:22;;;;;;;2.30;1.10;;;18.40;33.10;;;;;;8324044;28;20075;-44
2020/12/26 01:40:23;;;;;;;1.73;1.10;;;18.40;33.20;;;;;;8324393;28;20050;-45
2020/12/26 01:44:23;;;;;;;1.33;1.13;;;18.30;33.20;;;;;;8322747;28;21062;-45
2020/12/26 01:48:25;;;;;;;2.23;1.00;;;18.40;33.20;;;;;;8329225;28;20052;-45
2020/12/26 01:52:25;;;;;;;4.03;1.88;;;18.30;33.70;;;;;;8324529;28;20056;-45
2020/12/26 01:56:26;;;;;;;1.00;0.90;;;18.30;33.20;;;;;;8322541;28;20107;-44
2020/12/26 02:00:27;;;;;;;1.20;1.05;;;18.30;33.20;;;;;;8324394;28;20032;-44
2020/12/26 02:04:27;;;;;;;2.43;1.20;;;18.30;33.20;;;;;;8328748;28;20045;-45
2020/12/26 02:08:28;;;;;;;1.67;1.27;;;18.30;33.20;;;;;;8322484;28;20041;-44
2020/12/26 02:12:30;;;;;;;1.07;0.97;;;18.30;33.20;;;;;;8335436;28;20083;-44
2020/12/26 02:16:45;;;;;;;1.67;1.10;;;18.30;33.10;;;;;;8337082;28;20064;-45
2020/12/26 02:20:46;;;;;;;1.13;1.02;;;18.30;33.20;;;;;;8321943;28;20056;-44
2020/12/26 02:24:46;;;;;;;1.40;1.20;;;18.30;33.20;;;;;;8328104;28;20041;-44
2020/12/26 02:28:47;;;;;;;1.43;1.10;;;18.30;33.20;;;;;;8324047;28;20037;-45
2020/12/26 02:32:47;;;;;;;2.37;1.03;;;18.20;33.10;;;;;;8321708;28;20265;-45
2020/12/26 02:36:48;;;;;;;2.10;1.30;;;18.20;33.10;;;;;;8323567;28;20124;-44
2020/12/26 02:40:49;;;;;;;1.60;1.13;;;18.20;33.10;;;;;;8328056;28;20037;-44
2020/12/26 02:44:51;;;;;;;1.75;1.17;;;18.20;33.20;;;;;;8321325;28;20041;-44
2020/12/26 02:48:51;;;;;;;;;;;18.20;33.10;;;;;;8327752;28;20084;-45
2020/12/26 02:52:52;;;;;;;1.42;1.13;;;18.20;33.10;;;;;;8329596;28;20003;-45
2020/12/26 02:56:52;;;;;;;1.97;1.10;;;18.20;33.10;;;;;;8352247;28;20030;-44
2020/12/26 03:00:53;;;;;;;1.23;1.10;;;18.10;33.10;;;;;;8333754;28;20087;-44
2020/12/26 03:04:53;;;;;;;2.13;1.30;;;18.10;33.10;;;;;;8329292;28;20140;-44
2020/12/26 03:08:54;;;;;;;1.77;1.40;;;18.10;33.00;;;;;;8327455;28;20505;-44
2020/12/26 03:12:54;;;;;;;0.90;0.90;;;18.10;33.10;;;;;;8328938;28;20029;-44
2020/12/26 03:16:55;;;;;;;2.27;1.20;;;18.10;33.10;;;;;;8333299;28;20033;-44
2020/12/26 03:20:55;;;;;;;1.60;1.27;;;18.10;33.00;;;;;;8333820;28;20041;-44
2020/12/26 03:24:56;;;;;;;1.73;1.00;;;18.10;33.00;;;;;;8345847;28;20132;-44
2020/12/26 03:28:57;;;;;;;1.23;1.10;;;18.10;33.10;;;;;;8352016;28;20215;-44
2020/12/26 03:32:57;;;;;;;2.10;1.50;;;18.10;33.10;;;;;;8356398;28;20041;-44
2020/12/26 03:36:58;;;;;;;1.10;1.00;;;18.10;33.10;;;;;;8328317;28;20106;-44
2020/12/26 03:41:00;;;;;;;1.93;1.17;;;18.10;33.10;;;;;;8352542;28;20062;-44
2020/12/26 03:45:01;;;;;;;1.67;1.20;;;18.10;33.00;;;;;;8351387;28;20041;-43
2020/12/26 03:49:02;;;;;;;1.20;1.08;;;18.10;33.00;;;;;;8328133;28;20119;-44
2020/12/26 03:53:03;;;;;;;2.55;0.90;;;18.10;33.00;;;;;;8332143;28;20555;-44
2020/12/26 03:57:03;;;;;;;1.70;1.20;;;18.00;33.00;;;;;;8325522;28;20093;-43
2020/12/26 04:01:04;;;;;;;1.73;1.10;;;18.00;33.00;;;;;;8326661;28;20103;-45
2020/12/26 04:05:04;;;;;;;1.90;1.30;;;18.00;33.00;;;;;;8325536;28;20056;-44
2020/12/26 04:09:05;;;;;;;1.30;1.00;;;18.00;33.00;;;;;;8356478;28;20045;-44
2020/12/26 04:13:05;;;;;;;1.13;1.00;;;18.00;33.00;;;;;;8326978;28;20088;-44
2020/12/26 04:17:06;;;;;;;1.00;0.90;;;18.00;33.00;;;;;;8325067;28;20095;-43
2020/12/26 04:21:07;;;;;;;1.53;1.13;;;18.10;33.00;;;;;;8335375;28;20393;-44
2020/12/26 04:25:07;;;;;;;1.10;1.00;;;18.10;33.00;;;;;;8343899;28;20136;-44
2020/12/26 04:29:08;;;;;;;1.03;0.93;;;18.10;32.90;;;;;;8328522;28;20517;-43
2020/12/26 04:33:09;;;;;;;2.42;1.20;;;18.10;32.90;;;;;;8326683;28;20040;-44
2020/12/26 04:37:09;;;;;;;1.17;1.07;;;18.20;32.90;;;;;;8326325;28;20044;-44
2020/12/26 04:41:10;;;;;;;1.93;1.17;;;18.20;32.80;;;;;;8349149;28;20041;-43
2020/12/26 04:45:10;;;;;;;2.30;1.20;;;18.20;32.80;;;;;;8330502;28;20053;-44
2020/12/26 04:49:12;;;;;;;1.50;1.13;;;18.20;32.70;;;;;;8325555;28;20056;-44
2020/12/26 04:53:14;;;;;;;;;;;18.30;32.70;;;;;;8324322;28;20061;-43
2020/12/26 04:57:16;;;;;;;1.85;1.10;;;18.30;32.70;;;;;;8325669;28;19921;-45
2020/12/26 05:01:16;;;;;;;;;;;18.30;32.70;;;;;;8330548;28;20080;-44
2020/12/26 05:05:17;;;;;;;0.95;0.93;;;18.30;32.60;;;;;;8350259;28;20293;-43
2020/12/26 05:09:19;;;;;;;2.53;1.17;;;18.30;32.70;;;;;;8358065;28;20033;-45
2020/12/26 05:13:20;;;;;;;1.88;1.27;;;18.30;32.60;;;;;;8358246;28;20040;-44
2020/12/26 05:17:20;;;;;;;2.77;0.97;;;18.40;32.70;;;;;;8354142;28;20445;-44
2020/12/26 05:21:24;;;;;;;1.20;1.10;;;18.40;32.70;;;;;;8329483;28;20037;-44
2020/12/26 05:25:25;;;;;;;1.20;1.10;;;18.40;32.70;;;;;;8324656;28;20075;-44
2020/12/26 05:29:28;;;;;;;1.43;1.00;;;18.50;32.70;;;;;;8325966;28;20044;-44
2020/12/26 05:33:30;;;;;;;1.50;1.10;;;18.50;32.70;;;;;;8346223;28;20037;-45
2020/12/26 05:37:30;;;;;;;1.33;1.13;;;18.50;32.70;;;;;;8328943;28;20033;-44
2020/12/26 05:41:31;;;;;;;2.27;1.27;;;18.50;32.60;;;;;;8323376;28;20044;-45
2020/12/26 05:45:38;;;;;;;2.20;1.23;;;18.50;32.70;;;;;;8324614;28;20045;-45
2020/12/26 05:49:39;;;;;;;1.50;1.10;;;18.60;32.60;;;;;;8324078;28;20048;-45
2020/12/26 05:53:40;;;;;;;2.03;1.48;;;18.60;32.70;;;;;;8322931;28;20041;-44
2020/12/26 05:57:41;;;;;;;1.80;1.40;;;18.60;32.70;;;;;;8342274;28;20501;-44
2020/12/26 06:01:41;;;;;;;1.10;1.00;;;18.60;32.60;;;;;;8357197;28;20057;-44
2020/12/26 06:05:44;;;;;;;2.23;1.40;;;18.60;32.60;;;;;;8349786;28;20037;-44
2020/12/26 06:09:50;;;;;;;1.50;1.38;;;18.60;32.60;;;;;;8323925;28;20041;-44
2020/12/26 06:13:51;;;;;;;1.65;1.20;;;18.60;32.60;;;;;;8351680;28;20512;-44
2020/12/26 06:17:55;;;;;;;2.00;1.10;;;18.60;32.60;;;;;;8324005;28;20041;-44
2020/12/26 06:21:56;;;;;;;2.50;1.30;;;18.70;32.50;;;;;;8340350;28;20037;-45
2020/12/26 06:25:59;;;;;;;2.15;1.15;;;18.70;32.50;;;;;;8339466;28;20533;-44
2020/12/26 06:30:02;;;;;;;1.50;1.30;;;18.70;32.60;;;;;;8329770;28;20091;-44
2020/12/26 06:34:03;;;;;;;1.20;1.10;;;18.70;32.60;;;;;;8301932;28;20037;-45
2020/12/26 06:38:29;;;;;;;1.30;1.07;;;18.70;32.50;;;;;;8321983;28;20513;-45
2020/12/26 06:42:40;;;;;;;1.35;1.10;;;18.70;32.60;;;;;;8327262;28;20045;-44
2020/12/26 06:46:40;;;;;;;1.30;1.00;;;18.70;32.60;;;;;;8329181;28;20133;-44
2020/12/26 06:50:41;;;;;;;1.30;1.17;;;18.70;32.50;;;;;;8332295;28;20037;-44
2020/12/26 06:54:45;;;;;;;1.17;1.00;;;18.70;32.50;;;;;;8344071;28;20482;-44
2020/12/26 06:58:45;;;;;;;1.75;1.17;;;18.70;32.50;;;;;;8340377;28;20112;-44
2020/12/26 07:02:46;;;;;;;1.30;1.17;;;18.70;32.50;;;;;;8328103;28;20479;-44
2020/12/26 07:06:54;;;;;;;1.20;1.10;;;18.70;32.50;;;;;;8329108;28;20479;-45
2020/12/26 07:10:56;;;;;;;1.63;1.30;;;18.80;32.60;;;;;;8333513;28;20038;-45
2020/12/26 07:14:57;;;;;;;1.25;1.13;;;18.80;32.50;;;;;;8326792;28;20386;-45
2020/12/26 07:19:24;;;;;;;1.40;1.30;;;18.80;32.50;;;;;;8329046;28;20120;-44
2020/12/26 07:23:24;;;;;;;1.80;1.27;;;18.80;32.50;;;;;;8351677;28;21265;-44
2020/12/26 07:27:32;;;;;;;1.10;1.00;;;18.80;32.50;;;;;;8328785;28;22115;-44
2020/12/26 07:31:48;;;;;;;1.02;1.00;;;18.80;32.40;;;;;;8332816;28;20457;-45
2020/12/26 07:35:49;;;;;;;1.20;1.10;;;18.80;32.40;;;;;;8327102;28;20099;-45
2020/12/26 07:39:49;;;;;;;3.77;1.43;;;18.80;32.40;;;;;;8327995;28;20041;-45
2020/12/26 07:43:51;;;;;;;1.10;1.00;;;18.80;32.50;;;;;;8328381;28;20038;-45
2020/12/26 07:47:57;;;;;;;1.20;1.10;;;18.80;32.50;;;;;;8330603;28;20152;-45
2020/12/26 07:52:15;;;;;;;2.13;1.40;;;18.80;32.40;;;;;;8330953;28;20046;-44
2020/12/26 07:56:26;;;;;;;2.13;1.30;;;18.80;32.40;;;;;;8325755;28;20124;-44
2020/12/26 08:00:29;;;;;;;2.13;1.40;;;18.80;32.30;;;;;;8327864;28;20034;-45
2020/12/26 08:04:42;;;;;;;2.70;1.30;;;18.80;32.30;;;;;;8327596;28;20076;-45
2020/12/26 08:08:43;;;;;;;1.20;1.10;;;18.80;32.30;;;;;;8328888;28;20042;-46
2020/12/26 08:12:51;;;;;;;1.10;1.00;;;18.80;32.30;;;;;;8329726;28;20034;-45
2020/12/26 08:16:53;;;;;;;2.17;1.55;;;18.90;32.40;;;;;;8326794;28;20045;-46
2020/12/26 08:20:55;;;;;;;2.58;1.40;;;18.90;32.40;;;;;;8325265;28;20041;-45
2020/12/26 08:25:06;;;;;;;2.65;1.55;;;18.90;32.30;;;;;;8326950;28;20037;-49
2020/12/26 08:29:08;;;;;;;1.95;1.52;;;18.90;32.30;;;;;;8354343;28;20087;-47
2020/12/26 08:33:23;;;;;;;;;;;18.90;32.30;;;;;;8352062;28;20037;-47
2020/12/26 08:37:27;;;;;;;2.88;1.80;;;18.90;32.30;;;;;;8326745;28;19919;-45
2020/12/26 08:41:30;;;;;;;1.33;1.17;;;18.90;32.30;;;;;;8324618;28;20048;-45
2020/12/26 08:45:33;;;;;;;1.48;1.20;;;18.90;32.30;;;;;;8325536;28;20064;-46
2020/12/26 08:49:33;;;;;;;1.60;1.50;;;18.90;32.20;;;;;;8330551;28;20096;-44
2020/12/26 08:53:34;;;;;;;1.50;1.40;;;18.90;32.20;;;;;;8352765;28;20375;-45
2020/12/26 08:57:35;;;;;;;1.83;1.73;;;19.00;32.30;;;;;;8358850;28;20028;-45
2020/12/26 09:01:36;;;;;;;1.52;1.42;;;19.00;32.30;;;;;;8358816;28;20097;-46
2020/12/26 09:05:36;;;;;;;1.40;1.30;;;19.00;32.20;;;;;;8360749;28;20045;-45
2020/12/26 09:09:37;;;;;;;1.60;1.50;;;19.00;32.20;;;;;;8358366;28;20041;-46
2020/12/26 09:13:40;;;;;;;1.63;1.37;;;19.00;32.20;;;;;;8358902;28;20367;-45
2020/12/26 09:17:40;;;;;;;1.85;1.52;;;19.00;32.20;;;;;;8352070;28;20041;-45
2020/12/26 09:21:41;;;;;;;2.10;1.60;;;19.00;32.20;;;;;;8325430;28;20167;-45
2020/12/26 09:25:41;;;;;;;1.67;1.40;;;19.00;32.20;;;;;;8329768;28;20088;-45
2020/12/26 09:29:42;;;;;;;2.40;1.67;;;19.00;32.20;;;;;;8328619;28;20497;-45
2020/12/26 09:33:43;;;;;;;1.80;1.50;;;19.10;32.20;;;;;;8345008;28;20033;-45
2020/12/26 09:37:54;;;;;;;1.67;1.58;;;19.10;32.70;;;;;;8325161;28;20037;-46
2020/12/26 09:41:54;;;;;;;2.17;1.50;;;19.10;32.10;;;;;;8359458;28;20119;-45
2020/12/26 09:45:55;;;;;;;1.57;1.47;;;19.10;32.20;;;;;;8343059;28;20662;-45
2020/12/26 09:49:55;;;;;;;2.30;1.67;;;19.10;32.10;;;;;;8325416;28;20053;-46
2020/12/26 09:53:56;;;;;;;1.87;1.40;;;19.10;32.10;;;;;;8330311;28;20037;-45
2020/12/26 09:57:57;;;;;;;2.60;1.53;;;19.10;32.10;;;;;;8347661;28;20042;-46
2020/12/26 10:01:57;;;;;;;1.40;1.30;;;19.20;32.10;;;;;;8358129;28;20485;-45
2020/12/26 10:05:58;;;;;;;2.40;1.60;;;19.10;32.10;;;;;;8362878;28;20403;-45
2020/12/26 10:09:59;;;;;;;1.60;1.30;;;19.10;32.00;;;;;;8348787;28;20038;-45
2020/12/26 10:13:59;;;;;;;2.22;1.40;;;19.10;32.10;;;;;;8331341;28;20029;-45
2020/12/26 10:18:00;;;;;;;1.53;1.43;;;19.10;32.00;;;;;;8366266;28;20394;-47
2020/12/26 10:22:00;;;;;;;2.43;1.33;;;19.10;32.00;;;;;;8363917;28;20043;-45
2020/12/26 10:26:05;;;;;;;1.40;1.30;;;19.20;32.10;;;;;;8363786;28;20045;-45
2020/12/26 10:30:06;;;;;;;1.33;1.23;;;19.10;32.10;;;;;;8362392;28;20106;-45
2020/12/26 10:34:07;;;;;;;1.70;1.60;;;19.20;32.10;;;;;;8351442;28;20120;-46
2020/12/26 10:38:08;;;;;;;1.83;1.38;;;19.20;32.10;;;;;;8329403;28;20041;-46
2020/12/26 10:42:08;;;;;;;1.90;1.37;;;19.20;32.10;;;;;;8363545;28;20048;-46
2020/12/26 10:46:09;;;;;;;1.73;1.43;;;19.20;32.10;;;;;;8346133;28;20075;-45
2020/12/26 10:50:09;;;;;;;1.80;1.50;;;19.20;32.00;;;;;;8328863;28;20044;-46
2020/12/26 10:54:10;;;;;;;1.83;1.50;;;19.20;32.00;;;;;;8334556;28;20052;-45
2020/12/26 10:58:10;;;;;;;1.80;1.60;;;19.30;32.00;;;;;;8330122;28;20091;-46
2020/12/26 11:02:11;;;;;;;1.00;0.93;;;19.20;32.00;;;;;;8328301;28;20049;-45
2020/12/26 11:06:11;;;;;;;1.77;1.40;;;19.30;32.00;;;;;;8338543;28;20502;-45
2020/12/26 11:10:12;;;;;;;1.60;1.50;;;19.30;32.00;;;;;;8349633;28;20121;-45
2020/12/26 11:14:13;;;;;;;1.65;1.35;;;19.30;32.00;;;;;;8327559;28;20037;-46
2020/12/26 11:18:13;;;;;;;1.70;1.60;;;19.30;32.00;;;;;;8339040;28;20063;-45
2020/12/26 11:22:14;;;;;;;1.60;1.50;;;19.30;32.00;;;;;;8362566;28;20443;-45
2020/12/26 11:26:14;;;;;;;1.23;1.13;;;19.30;32.00;;;;;;8364857;28;20498;-44
2020/12/26 11:30:15;;;;;;;1.80;1.30;;;19.30;32.00;;;;;;8352244;28;20497;-46
2020/12/26 11:34:15;;;;;;;1.83;1.57;;;19.40;32.00;;;;;;8346451;28;20033;-45
2020/12/26 11:38:16;;;;;;;2.27;1.60;;;19.40;32.00;;;;;;8333730;28;20406;-44
2020/12/26 11:42:16;;;;;;;1.70;1.33;;;19.40;32.00;;;;;;8338315;28;20922;-46
2020/12/26 11:46:18;;;;;;;1.23;1.13;;;19.40;31.90;;;;;;8366322;28;20482;-45
2020/12/26 11:50:18;;;;;;;;;;;19.40;31.90;;;;;;8358187;28;20056;-45
2020/12/26 11:54:21;;;;;;;1.55;1.15;;;19.40;31.80;;;;;;8338459;28;19920;-46
2020/12/26 11:58:23;;;;;;;2.13;1.30;;;19.40;31.90;;;;;;8361117;28;20025;-45
2020/12/26 12:02:24;;;;;;;1.40;1.23;;;19.40;31.90;;;;;;8336660;28;20034;-45
2020/12/26 12:06:24;;;;;;;1.50;1.37;;;19.40;31.80;;;;;;8327720;28;20158;-46
2020/12/26 12:10:25;;;;;;;1.33;1.23;;;19.40;31.80;;;;;;8327768;28;20037;-46
2020/12/26 12:14:25;;;;;;;2.27;1.73;;;19.40;31.70;;;;;;8325559;28;20050;-45
2020/12/26 12:18:26;;;;;;;1.00;1.00;;;19.40;31.80;;;;;;8328575;28;20372;-45
2020/12/26 12:22:26;;;;;;;1.60;1.20;;;19.50;31.80;;;;;;8329925;28;20033;-45
2020/12/26 12:26:27;;;;;;;1.70;1.30;;;19.50;31.70;;;;;;8353725;28;20099;-46
2020/12/26 12:30:28;;;;;;;1.50;1.40;;;19.50;31.70;;;;;;8359957;28;20029;-45
2020/12/26 12:34:28;;;;;;;1.37;1.20;;;19.50;31.70;;;;;;8340335;28;20490;-46
2020/12/26 12:38:29;;;;;;;2.00;1.23;;;19.50;31.70;;;;;;8329494;28;20033;-44
2020/12/26 12:42:30;;;;;;;2.08;1.17;;;19.50;31.70;;;;;;8326754;28;20038;-45
2020/12/26 12:46:30;;;;;;;1.50;1.20;;;19.50;31.60;;;;;;8346412;28;20041;-48
2020/12/26 12:50:31;;;;;;;1.20;1.10;;;19.50;31.60;;;;;;8333026;28;20288;-46
2020/12/26 12:54:31;;;;;;;3.23;1.87;;;19.50;31.60;;;;;;8363667;28;20060;-47
2020/12/26 12:58:32;;;;;;;1.63;1.53;;;19.50;31.60;;;;;;8338971;28;20041;-45
2020/12/26 13:02:33;;;;;;;1.00;1.00;;;19.50;31.60;;;;;;8353375;28;20045;-46
2020/12/26 13:06:33;;;;;;;1.80;1.30;;;19.50;31.60;;;;;;8359083;28;20052;-45
2020/12/26 13:10:34;;;;;;;1.10;1.00;;;19.50;31.60;;;;;;8338232;28;20045;-45
2020/12/26 13:14:35;;;;;;;1.13;1.00;;;19.50;31.60;;;;;;8328689;28;20077;-44
2020/12/26 13:18:35;;;;;;;2.17;1.40;;;19.50;31.60;;;;;;8325924;28;20113;-45
2020/12/26 13:22:36;;;;;;;1.00;0.83;;;19.50;31.60;;;;;;8325683;28;20028;-45
2020/12/26 13:26:37;;;;;;;1.33;1.13;;;19.50;31.60;;;;;;8324046;28;20281;-45
2020/12/26 13:30:37;;;;;;;1.13;1.02;;;19.50;31.50;;;;;;8329801;28;20033;-45
2020/12/26 13:34:38;;;;;;;1.30;1.20;;;19.50;31.60;;;;;;8325196;28;20114;-46
2020/12/26 13:38:38;;;;;;;0.90;0.90;;;19.50;31.50;;;;;;8348387;28;20140;-45
2020/12/26 13:42:39;;;;;;;1.23;1.10;;;19.50;31.60;;;;;;8325059;28;20033;-45
2020/12/26 13:46:43;;;;;;;1.63;1.27;;;19.50;31.50;;;;;;8350571;28;20049;-46
2020/12/26 13:50:43;;;;;;;2.58;1.10;;;19.50;31.50;;;;;;8326065;28;20117;-46
2020/12/26 13:54:44;;;;;;;2.13;1.20;;;19.50;31.40;;;;;;8324588;28;20045;-45
2020/12/26 13:58:44;;;;;;;2.27;1.00;;;19.50;31.50;;;;;;8325168;28;20117;-47
2020/12/26 14:02:45;;;;;;;2.03;1.10;;;19.50;31.50;;;;;;8353533;28;20041;-46
2020/12/26 14:06:45;;;;;;;1.27;1.17;;;19.50;31.40;;;;;;8348274;28;20037;-45
2020/12/26 14:10:46;;;;;;;1.10;1.10;;;19.50;31.40;;;;;;8324785;28;20029;-45
2020/12/26 14:14:46;;;;;;;1.73;1.13;;;19.50;31.40;;;;;;8347443;28;20038;-45
2020/12/26 14:18:48;;;;;;;2.33;1.20;;;19.50;31.40;;;;;;8338415;28;20483;-45
2020/12/26 14:22:48;;;;;;;1.30;1.08;;;19.50;31.40;;;;;;8333978;28;20049;-46
2020/12/26 14:26:49;;;;;;;2.67;1.40;;;19.50;31.30;;;;;;8356961;28;20140;-45
2020/12/26 14:30:49;;;;;;;2.83;1.20;;;19.50;31.80;;;;;;8322990;28;20033;-45
2020/12/26 14:34:50;;;;;;;2.40;1.30;;;19.50;31.70;;;;;;8318977;28;20037;-47
2020/12/26 14:38:51;;;;;;;1.70;1.33;;;19.60;31.70;;;;;;8323322;28;20021;-46
2020/12/26 14:42:52;;;;;;;3.17;1.52;;;19.60;31.80;;;;;;8355331;28;20057;-45
2020/12/26 14:46:52;;;;;;;1.37;1.10;;;19.70;31.70;;;;;;8356244;28;20442;-45
2020/12/26 14:50:53;;;;;;;2.87;1.33;;;19.70;31.80;;;;;;8348562;28;20127;-44
2020/12/26 14:54:53;;;;;;;1.33;0.93;;;19.80;31.90;;;;;;8342735;28;20044;-46
2020/12/26 14:58:54;;;;;;;0.90;0.90;;;19.80;31.90;;;;;;8360755;28;20037;-45
2020/12/26 15:02:55;;;;;;;3.20;1.20;;;19.80;31.90;;;;;;8323607;28;20107;-46
2020/12/26 15:06:55;;;;;;;0.80;0.80;;;19.90;31.90;;;;;;8336054;28;20076;-45
2020/12/26 15:10:56;;;;;;;1.37;1.10;;;19.90;31.90;;;;;;8332122;28;20536;-46
2020/12/26 15:14:56;;;;;;;2.73;1.30;;;19.90;31.90;;;;;;8349783;28;20518;-43
2020/12/26 15:19:02;;;;;;;1.27;1.10;;;20.00;31.90;;;;;;8333811;28;20101;-44
2020/12/26 15:23:02;;;;;;;3.45;1.13;;;20.00;32.00;;;;;;8355681;28;20425;-46
2020/12/26 15:27:03;;;;;;;5.47;1.30;;;20.00;31.90;;;;;;8344983;28;20095;-46
2020/12/26 15:31:05;;;;;;;6.73;1.50;;;20.00;31.90;;;;;;8321081;28;20175;-49
2020/12/26 15:35:05;;;;;;;4.45;1.25;;;20.10;32.60;;;;;;8325000;28;20053;-50
2020/12/26 15:39:06;;;;;;;6.13;1.97;;;20.10;32.20;;;;;;8330555;28;20037;-50
2020/12/26 15:43:10;;;;;;;9.37;2.03;;;20.10;32.00;;;;;;8355128;28;20552;-49
2020/12/26 15:47:11;;;;;;;6.22;2.05;;;20.10;31.80;;;;;;8327847;28;20136;-49
2020/12/26 15:51:11;;;;;;;20.67;4.17;;;20.20;31.70;;;;;;8326361;28;20073;-48
2020/12/26 15:55:12;;;;;;;13.60;3.90;;;20.10;31.90;;;;;;8320131;28;20052;-49
2020/12/26 15:59:12;;;;;;;14.63;4.53;;;20.10;31.80;;;;;;8320264;28;20034;-51
2020/12/26 16:03:13;;;;;;;10.17;2.93;;;20.10;31.80;;;;;;8321564;28;20041;-48
2020/12/26 16:07:13;;;;;;;11.17;4.03;;;20.20;31.80;;;;;;8323755;28;20133;-50
2020/12/26 16:11:14;;;;;;;17.80;5.33;;;20.20;31.90;;;;;;8321638;28;20464;-52
2020/12/26 16:15:15;;;;;;;18.55;3.92;;;20.20;31.90;;;;;;8330624;28;20037;-53
2020/12/26 16:19:15;;;;;;;9.07;3.20;;;20.20;32.00;;;;;;8353120;28;20033;-50
2020/12/26 16:23:16;;;;;;;6.53;1.80;;;20.00;28.10;;;;;;8352265;28;20033;-46
2020/12/26 16:27:16;;;;;;;5.97;2.03;;;19.30;26.10;;;;;;8348527;28;20075;-47
2020/12/26 16:31:17;;;;;;;4.37;2.00;;;19.20;29.40;;;;;;8320476;28;20061;-49
2020/12/26 16:35:17;;;;;;;5.90;1.90;;;19.30;29.60;;;;;;8345300;28;20052;-49
2020/12/26 16:39:18;;;;;;;5.50;2.07;;;19.50;29.50;;;;;;8353357;28;20091;-49
2020/12/26 16:43:18;;;;;;;5.63;2.03;;;19.70;29.60;;;;;;8357832;28;20068;-46
2020/12/26 16:47:19;;;;;;;4.27;1.97;;;19.80;30.20;;;;;;8351778;28;20040;-51
2020/12/26 16:51:23;;;;;;;6.43;1.90;;;19.90;30.20;;;;;;8353041;28;20489;-48
2020/12/26 16:55:24;;;;;;;8.13;1.98;;;20.10;30.50;;;;;;8330278;28;20048;-48
2020/12/26 16:59:24;;;;;;;4.93;1.90;;;20.10;30.80;;;;;;8318829;28;20105;-48
2020/12/26 17:03:25;;;;;;;5.80;1.70;;;20.20;30.70;;;;;;8324498;28;20034;-48
2020/12/26 17:07:28;;;;;;;4.77;2.03;;;20.20;30.80;;;;;;8336965;28;20052;-47
2020/12/26 17:11:33;;;;;;;4.45;1.65;;;20.20;30.60;;;;;;8346816;28;20037;-49
2020/12/26 17:15:33;;;;;;;2.80;1.30;;;20.20;30.90;;;;;;8319424;28;20049;-50
2020/12/26 17:19:34;;;;;;;4.03;2.07;;;20.30;30.80;;;;;;8317527;28;20486;-48
2020/12/26 17:23:35;;;;;;;2.63;1.33;;;20.30;30.70;;;;;;8317648;28;20042;-52
2020/12/26 17:27:35;;;;;;;3.77;2.10;;;20.30;30.80;;;;;;8318936;28;20053;-49
2020/12/26 17:31:37;;;;;;;3.50;1.50;;;20.30;30.90;;;;;;8319019;28;20486;-47
2020/12/26 17:35:37;;;;;;;2.25;1.60;;;20.30;31.10;;;;;;8334662;28;20033;-50
2020/12/26 17:39:38;;;;;;;3.53;1.73;;;20.30;31.30;;;;;;8341162;28;20034;-49
2020/12/26 17:43:39;;;;;;;2.87;1.47;;;20.30;31.30;;;;;;8339722;28;20041;-50
2020/12/26 17:47:39;;;;;;;;;;;20.30;31.50;;;;;;8321129;28;20041;-49
2020/12/26 17:51:40;;;;;;;4.67;2.27;;;20.30;32.20;;;;;;8331955;28;19916;-53
2020/12/26 17:55:40;;;;;;;4.87;1.97;;;20.40;31.80;;;;;;8356250;28;20068;-51
2020/12/26 17:59:41;;;;;;;4.63;1.90;;;20.40;32.40;;;;;;8324964;28;20044;-51
2020/12/26 18:03:42;;;;;;;8.83;1.57;;;20.40;32.60;;;;;;8351645;28;20055;-48
2020/12/26 18:07:43;;;;;;;;;;;20.40;32.70;;;;;;8329539;28;20057;-48
2020/12/26 18:11:45;;;;;;;4.87;1.70;;;20.40;32.90;;;;;;8325838;28;20335;-49
2020/12/26 18:15:45;;;;;;;9.70;2.30;;;20.40;32.70;;;;;;8337905;28;20148;-49
2020/12/26 18:19:46;;;;;;;26.60;4.10;;;20.40;32.60;;;;;;8321922;28;20441;-47
2020/12/26 18:23:47;;;;;;;21.30;3.90;;;20.40;34.10;;;;;;8353316;28;20045;-49
2020/12/26 18:27:47;;;;;;;30.33;5.33;;;20.40;33.50;;;;;;8357726;28;20332;-51
2020/12/26 18:31:48;;;;;;;27.03;4.63;;;20.50;34.40;;;;;;8361548;28;20040;-47
2020/12/26 18:35:48;;;;;;;24.27;4.07;;;20.50;34.20;;;;;;8355578;28;20544;-48
2020/12/26 18:39:49;;;;;;;29.20;4.57;;;20.50;34.40;;;;;;8357079;28;20460;-49
2020/12/26 18:43:50;;;;;;;39.20;5.57;;;20.50;34.40;;;;;;8334580;28;20033;-52
2020/12/26 18:47:52;;;;;;;42.35;6.40;;;20.50;35.30;;;;;;8351396;28;20053;-51
2020/12/26 18:51:53;;;;;;;33.20;5.70;;;20.60;34.50;;;;;;8323337;28;20045;-53
2020/12/26 18:55:53;;;;;;;33.63;6.77;;;20.60;34.50;;;;;;8323979;28;20397;-51
2020/12/26 18:59:54;;;;;;;31.37;5.93;;;20.60;34.20;;;;;;8321477;28;20448;-53
2020/12/26 19:03:55;;;;;;;19.43;4.13;;;20.60;33.70;;;;;;8334071;28;20037;-52
2020/12/26 19:07:55;;;;;;;31.13;4.63;;;20.60;33.70;;;;;;8332819;28;20136;-50
2020/12/26 19:11:56;;;;;;;26.27;5.37;;;20.60;33.50;;;;;;8321211;28;20509;-53
2020/12/26 19:15:56;;;;;;;26.50;6.97;;;20.60;33.60;;;;;;8323156;28;20033;-47
2020/12/26 19:19:57;;;;;;;23.63;4.23;;;20.60;33.40;;;;;;8326229;28;20037;-52
2020/12/26 19:23:58;;;;;;;17.23;4.22;;;20.60;33.30;;;;;;8331859;28;20036;-54
2020/12/26 19:27:58;;;;;;;22.63;4.43;;;20.60;33.20;;;;;;8328574;28;20072;-53
2020/12/26 19:31:59;;;;;;;26.20;6.07;;;20.60;33.10;;;;;;8327420;28;20030;-50
2020/12/26 19:35:59;;;;;;;23.30;4.13;;;20.60;33.10;;;;;;8327140;28;20053;-51
2020/12/26 19:40:00;;;;;;;18.23;5.10;;;20.50;33.00;;;;;;8333267;28;20047;-49
2020/12/26 19:44:00;;;;;;;27.27;4.87;;;20.50;32.80;;;;;;8328651;28;20074;-52
2020/12/26 19:48:01;;;;;;;24.80;4.23;;;20.40;32.70;;;;;;8326399;28;20049;-49
2020/12/26 19:52:04;;;;;;;15.83;3.97;;;20.40;32.70;;;;;;8328278;28;20041;-50
2020/12/26 19:56:05;;;;;;;15.85;4.10;;;20.40;32.50;;;;;;8329350;28;20024;-51
2020/12/26 20:00:06;;;;;;;16.87;4.23;;;20.30;32.50;;;;;;8330089;28;20034;-49
2020/12/26 20:04:06;;;;;;;9.40;3.07;;;20.30;32.40;;;;;;8328317;28;20128;-49
2020/12/26 20:08:07;;;;;;;11.17;3.00;;;20.30;32.40;;;;;;8326672;28;20053;-48
2020/12/26 20:12:07;;;;;;;13.73;3.83;;;20.30;32.40;;;;;;8352189;28;20033;-49
2020/12/26 20:16:08;;;;;;;10.87;4.00;;;20.20;32.30;;;;;;8331907;28;20041;-49
2020/12/26 20:20:08;;;;;;;10.47;3.33;;;20.20;32.30;;;;;;8325993;28;20029;-49
2020/12/26 20:24:09;;;;;;;8.67;3.50;;;20.20;32.20;;;;;;8327401;28;20073;-49
2020/12/26 20:28:09;;;;;;;12.47;3.57;;;20.10;32.10;;;;;;8326795;28;20053;-50
2020/12/26 20:32:10;;;;;;;13.13;3.37;;;20.10;32.10;;;;;;8330482;28;20025;-49
2020/12/26 20:36:12;;;;;;;14.17;3.03;;;20.10;32.00;;;;;;8359541;28;20123;-48
2020/12/26 20:40:12;;;;;;;9.90;2.90;;;20.10;32.10;;;;;;8341681;28;20114;-51
2020/12/26 20:44:13;;;;;;;12.87;3.20;;;20.10;32.00;;;;;;8324758;28;20030;-49
2020/12/26 20:48:13;;;;;;;9.63;3.07;;;20.00;32.00;;;;;;8326808;28;20052;-49
2020/12/26 20:52:14;;;;;;;10.33;3.63;;;20.00;31.90;;;;;;8330604;28;20065;-49
2020/12/26 20:56:14;;;;;;;9.20;2.93;;;20.00;31.90;;;;;;8350522;28;20397;-49